Time;durP1;ratioP1;P1;durP2;ratioP2;P2;SDS_P1;SDS_P2;PMS_P1;PMS_P2;Temp;Humidity;BMP_temperature;BMP_pressure;BME280_temperature;BME280_humidity;BME280_pressure;Samples;Min_cycle;Max_cycle;Signal;HPM_P1;HPM_P2
2023/07/02 00:01:08;;;;;;;2.67;2.13;;;;;;;15.59;100.00;95340.84;5109858;27;24483;-72
2023/07/02 00:03:34;;;;;;;4.05;2.35;;;;;;;15.57;100.00;95331.50;5119526;27;24441;-72
2023/07/02 00:06:02;;;;;;;2.95;1.98;;;;;;;15.68;100.00;95334.00;5119216;27;24534;-72
2023/07/02 00:08:28;;;;;;;1.85;1.67;;;;;;;15.76;100.00;95334.16;5120329;27;24807;-72
2023/07/02 00:10:55;;;;;;;3.58;2.30;;;;;;;15.85;100.00;95343.75;5119170;27;24436;-72
2023/07/02 00:13:21;;;;;;;1.70;1.60;;;;;;;15.88;100.00;95338.28;5102359;27;24487;-72
2023/07/02 00:15:48;;;;;;;3.35;2.10;;;;;;;15.92;100.00;95342.25;5116782;27;24433;-72
2023/07/02 00:18:16;;;;;;;2.22;2.00;;;;;;;15.97;100.00;95342.66;5109925;27;24433;-72
2023/07/02 00:20:42;;;;;;;5.07;2.38;;;;;;;15.79;100.00;95344.31;5111752;27;24426;-72
2023/07/02 00:23:10;;;;;;;3.20;1.92;;;;;;;15.73;100.00;95334.44;5113059;27;25047;-72
2023/07/02 00:25:37;;;;;;;2.92;2.00;;;;;;;15.57;100.00;95339.34;5112853;27;24456;-72
2023/07/02 00:28:03;;;;;;;4.97;2.38;;;;;;;15.46;100.00;95337.69;5113235;27;24433;-72
2023/07/02 00:30:30;;;;;;;3.58;2.00;;;;;;;15.61;100.00;95338.94;5101000;27;24988;-72
2023/07/02 00:32:56;;;;;;;7.50;2.20;;;;;;;15.30;100.00;95340.00;5112909;27;24440;-72
2023/07/02 00:35:23;;;;;;;2.92;1.95;;;;;;;15.13;100.00;95337.13;5102012;27;24800;-72
2023/07/02 00:37:50;;;;;;;3.53;2.10;;;;;;;15.03;100.00;95333.66;5123960;27;24483;-72
2023/07/02 00:40:17;;;;;;;4.65;2.38;;;;;;;15.05;100.00;95334.34;5109005;27;24842;-72
2023/07/02 00:42:44;;;;;;;3.35;2.13;;;;;;;15.17;100.00;95332.47;5113214;27;24460;-71
2023/07/02 00:45:11;;;;;;;3.03;1.80;;;;;;;15.32;100.00;95325.88;5106843;27;24461;-72
2023/07/02 00:47:37;;;;;;;3.20;1.73;;;;;;;15.41;100.00;95334.66;5117829;27;24434;-72
2023/07/02 00:50:05;;;;;;;2.30;1.85;;;;;;;15.50;100.00;95336.47;5106440;27;24433;-72
2023/07/02 00:52:32;;;;;;;2.75;2.20;;;;;;;15.53;100.00;95345.78;5117708;27;24436;-71
2023/07/02 00:54:58;;;;;;;4.10;2.30;;;;;;;15.40;100.00;95343.47;5109410;27;24436;-71
2023/07/02 00:57:29;;;;;;;2.78;2.08;;;;;;;15.37;100.00;95348.94;5104481;27;24436;-71
2023/07/02 00:59:56;;;;;;;2.63;1.95;;;;;;;15.38;100.00;95359.25;5116455;27;24440;-71
2023/07/02 01:02:25;;;;;;;4.43;2.40;;;;;;;15.39;100.00;95360.91;5120351;27;24802;-71
2023/07/02 01:04:57;;;;;;;3.00;2.20;;;;;;;15.34;100.00;95365.69;5111883;27;24454;-71
2023/07/02 01:07:23;;;;;;;3.47;2.47;;;;;;;15.41;100.00;95361.59;5102789;27;24882;-71
2023/07/02 01:09:50;;;;;;;2.75;2.25;;;;;;;15.47;100.00;95358.44;5116551;27;24449;-71
2023/07/02 01:12:18;;;;;;;3.13;2.10;;;;;;;15.52;100.00;95358.03;5122814;27;24552;-71
2023/07/02 01:14:50;;;;;;;3.55;2.20;;;;;;;15.59;100.00;95358.31;5110303;27;24989;-71
2023/07/02 01:17:19;;;;;;;2.35;2.15;;;;;;;15.57;100.00;95355.81;5113233;27;25038;-72
2023/07/02 01:19:51;;;;;;;2.92;2.20;;;;;;;15.59;100.00;95353.09;5106140;27;25018;-72
2023/07/02 01:22:18;;;;;;;3.50;2.17;;;;;;;15.57;100.00;95345.38;5117643;27;24514;-71
2023/07/02 01:24:47;;;;;;;2.40;2.10;;;;;;;15.57;100.00;95340.16;5113176;27;24441;-72
2023/07/02 01:27:14;;;;;;;5.32;2.05;;;;;;;15.49;100.00;95343.44;5110499;27;24840;-72
2023/07/02 01:29:41;;;;;;;3.17;2.20;;;;;;;15.45;100.00;95338.66;5109236;27;24522;-71
2023/07/02 01:32:09;;;;;;;1.90;1.60;;;;;;;15.47;100.00;95339.34;5111066;27;24440;-71
2023/07/02 01:34:35;;;;;;;2.88;1.83;;;;;;;15.22;100.00;95341.50;5114163;27;25400;-71
2023/07/02 01:37:04;;;;;;;2.92;1.92;;;;;;;15.15;100.00;95337.78;5111384;27;24432;-72
2023/07/02 01:39:31;;;;;;;3.83;2.20;;;;;;;15.15;100.00;95337.78;5107776;27;24461;-71
2023/07/02 01:42:09;;;;;;;3.47;1.88;;;;;;;15.16;100.00;95338.63;5110573;27;24433;-71
2023/07/02 01:44:36;;;;;;;3.08;2.05;;;;;;;15.17;100.00;95345.50;5106035;28;24520;-72
2023/07/02 01:47:03;;;;;;;2.65;1.88;;;;;;;15.20;100.00;95342.59;5109488;27;24453;-71
2023/07/02 01:49:29;;;;;;;2.70;1.95;;;;;;;15.18;100.00;95344.53;5116499;27;24842;-71
2023/07/02 01:51:57;;;;;;;2.65;1.88;;;;;;;15.13;100.00;95347.56;5125161;27;25017;-72
2023/07/02 01:54:27;;;;;;;3.85;1.92;;;;;;;15.14;100.00;95343.97;5115611;27;24498;-71
2023/07/02 01:56:53;;;;;;;2.63;2.03;;;;;;;15.18;100.00;95340.13;5112903;27;24873;-71
2023/07/02 01:59:20;;;;;;;3.30;2.00;;;;;;;15.25;100.00;95341.25;5116607;27;24437;-71
2023/07/02 02:01:46;;;;;;;4.03;1.90;;;;;;;15.27;100.00;95346.31;5109786;27;24835;-71
2023/07/02 02:04:13;;;;;;;2.58;2.10;;;;;;;15.33;100.00;95343.19;5116214;27;24467;-71
2023/07/02 02:06:41;;;;;;;3.42;2.20;;;;;;;15.35;100.00;95338.66;5118507;27;24861;-71
2023/07/02 02:09:09;;;;;;;3.08;2.13;;;;;;;15.38;100.00;95330.53;5119519;28;24436;-71
2023/07/02 02:11:40;;;;;;;3.35;2.00;;;;;;;15.44;100.00;95337.00;5114069;28;24507;-71
2023/07/02 02:14:06;;;;;;;2.60;2.00;;;;;;;15.43;100.00;95343.19;5098827;28;24441;-71
2023/07/02 02:16:33;;;;;;;3.05;2.00;;;;;;;15.30;100.00;95345.22;5115956;28;25025;-71
2023/07/02 02:19:00;;;;;;;2.88;2.08;;;;;;;15.26;100.00;95349.91;5108625;28;24434;-71
2023/07/02 02:21:26;;;;;;;3.30;2.33;;;;;;;15.22;100.00;95349.34;5116568;28;24440;-71
2023/07/02 02:23:53;;;;;;;2.65;1.98;;;;;;;15.25;100.00;95351.69;5109964;28;24446;-71
2023/07/02 02:26:21;;;;;;;3.38;2.38;;;;;;;15.30;100.00;95353.06;5124438;27;24853;-71
2023/07/02 02:28:49;;;;;;;2.33;1.92;;;;;;;15.32;100.00;95353.75;5112842;27;24715;-72
2023/07/02 02:31:16;;;;;;;3.35;2.47;;;;;;;15.30;100.00;95353.06;5115202;27;24445;-71
2023/07/02 02:33:42;;;;;;;2.20;2.00;;;;;;;15.30;100.00;95359.09;5113873;27;24999;-72
2023/07/02 02:36:09;;;;;;;2.92;1.98;;;;;;;15.34;100.00;95359.66;5113971;27;24478;-71
2023/07/02 02:38:37;;;;;;;3.10;2.40;;;;;;;15.36;100.00;95361.19;5118731;27;24438;-71
2023/07/02 02:41:03;;;;;;;3.60;2.13;;;;;;;15.32;100.00;95361.59;5113426;27;24567;-72
2023/07/02 02:43:30;;;;;;;2.85;2.40;;;;;;;15.05;100.00;95367.41;5118424;27;24482;-71
2023/07/02 02:45:58;;;;;;;4.03;2.13;;;;;;;15.02;100.00;95368.53;5124817;27;24460;-72
2023/07/02 02:48:24;;;;;;;3.15;2.25;;;;;;;14.95;100.00;95370.84;5116579;27;24440;-72
2023/07/02 02:50:51;;;;;;;3.47;2.30;;;;;;;14.62;100.00;95371.94;5119892;27;24849;-72
2023/07/02 02:53:17;;;;;;;2.33;2.10;;;;;;;14.41;100.00;95373.72;5115296;27;25078;-72
2023/07/02 02:55:44;;;;;;;3.67;2.30;;;;;;;14.22;100.00;95383.09;5108982;27;24829;-72
2023/07/02 02:58:10;;;;;;;2.95;1.90;;;;;;;14.07;100.00;95388.75;5116367;27;25039;-72
2023/07/02 03:00:38;;;;;;;3.88;2.40;;;;;;;13.98;100.00;95390.34;5123288;27;24632;-72
2023/07/02 03:03:05;;;;;;;8.15;2.60;;;;;;;13.85;100.00;95392.28;5109717;27;24438;-71
2023/07/02 03:05:32;;;;;;;3.75;2.40;;;;;;;13.76;100.00;95384.28;5110397;27;24550;-72
2023/07/02 03:08:00;;;;;;;7.83;2.63;;;;;;;13.71;100.00;95388.19;5112264;27;24992;-72
2023/07/02 03:10:26;;;;;;;3.90;2.47;;;;;;;13.79;100.00;95389.25;5121179;27;25016;-71
2023/07/02 03:12:52;;;;;;;3.15;2.25;;;;;;;13.82;100.00;95390.75;5111672;27;24463;-72
2023/07/02 03:15:19;;;;;;;4.75;2.17;;;;;;;13.77;100.00;95388.53;5113868;27;24502;-72
2023/07/02 03:17:46;;;;;;;3.40;2.50;;;;;;;13.78;100.00;95405.78;5114888;27;25005;-71
2023/07/02 03:20:14;;;;;;;3.53;2.10;;;;;;;13.79;100.00;95402.25;5110273;27;24441;-72
2023/07/02 03:22:40;;;;;;;4.00;2.35;;;;;;;13.99;100.00;95397.19;5108123;27;25003;-71
2023/07/02 03:25:07;;;;;;;4.05;2.10;;;;;;;14.14;100.00;95397.72;5104393;27;24432;-72
2023/07/02 03:27:34;;;;;;;2.30;2.10;;;;;;;14.24;100.00;95398.59;5114817;27;24514;-72
2023/07/02 03:30:00;;;;;;;5.18;2.25;;;;;;;14.25;100.00;95398.47;5105596;27;24437;-71
2023/07/02 03:32:26;;;;;;;4.83;2.43;;;;;;;14.10;100.00;95410.16;5114763;27;24437;-71
2023/07/02 03:34:53;;;;;;;2.80;2.08;;;;;;;14.10;100.00;95409.34;5114945;27;24842;-71
2023/07/02 03:37:21;;;;;;;4.35;2.28;;;;;;;14.11;100.00;95411.81;5112919;27;24993;-72
2023/07/02 03:39:47;;;;;;;3.10;2.10;;;;;;;14.16;100.00;95414.84;5115312;27;25001;-71
2023/07/02 03:42:13;;;;;;;4.40;2.25;;;;;;;14.14;100.00;95411.56;5113959;27;24424;-72
2023/07/02 03:44:40;;;;;;;3.67;2.08;;;;;;;14.15;100.00;95415.78;5117815;27;24440;-72
2023/07/02 03:47:08;;;;;;;2.85;2.03;;;;;;;14.09;100.00;95420.69;5108886;28;24528;-71
2023/07/02 03:49:34;;;;;;;4.82;2.38;;;;;;;13.92;100.00;95422.06;5109068;28;24474;-71
2023/07/02 03:52:00;;;;;;;5.15;2.60;;;;;;;13.85;100.00;95420.91;5125965;27;24544;-72
2023/07/02 03:54:28;;;;;;;6.90;3.60;;;;;;;13.76;100.00;95425.94;5114724;27;24441;-71
2023/07/02 03:56:55;;;;;;;4.72;3.25;;;;;;;13.77;100.00;95426.75;5107461;27;24437;-72
2023/07/02 03:59:21;;;;;;;8.02;3.65;;;;;;;13.71;100.00;95435.03;5117721;27;24438;-71
2023/07/02 04:01:47;;;;;;;8.25;3.88;;;;;;;13.71;100.00;95430.66;5120610;27;25289;-72
2023/07/02 04:04:14;;;;;;;8.95;3.80;;;;;;;13.67;100.00;95434.47;5117934;27;25002;-72
2023/07/02 04:06:40;;;;;;;9.23;4.55;;;;;;;13.68;100.00;95425.72;5108858;27;24457;-71
2023/07/02 04:09:07;;;;;;;5.72;3.47;;;;;;;13.59;100.00;95436.84;5122016;27;24433;-72
2023/07/02 04:11:35;;;;;;;8.93;3.63;;;;;;;13.57;100.00;95430.94;5120770;27;24440;-71
2023/07/02 04:14:01;;;;;;;5.43;3.20;;;;;;;13.66;100.00;95438.03;5108821;27;24849;-71
2023/07/02 04:16:27;;;;;;;6.55;3.88;;;;;;;13.80;100.00;95436.91;5104879;28;24448;-71
2023/07/02 04:18:54;;;;;;;6.38;3.85;;;;;;;13.76;100.00;95438.94;5111490;27;24444;-72
2023/07/02 04:21:20;;;;;;;8.52;4.05;;;;;;;13.76;100.00;95445.94;5119707;27;24837;-71
2023/07/02 04:23:47;;;;;;;7.07;3.78;;;;;;;13.90;100.00;95442.19;5115860;27;24441;-72
2023/07/02 04:26:13;;;;;;;5.80;3.40;;;;;;;13.96;100.00;95447.72;5118717;27;24445;-72
2023/07/02 04:28:41;;;;;;;8.27;3.45;;;;;;;13.92;100.00;95448.13;5109859;27;24479;-72
2023/07/02 04:31:07;;;;;;;5.95;3.67;;;;;;;14.00;100.00;95449.13;5116590;27;24433;-71
2023/07/02 04:33:35;;;;;;;5.70;3.40;;;;;;;14.01;100.00;95458.59;5116548;27;24445;-71
2023/07/02 04:36:02;;;;;;;2.88;2.63;;;;;;;14.19;100.00;95463.25;5111534;27;24529;-72
2023/07/02 04:38:29;;;;;;;5.90;3.30;;;;;;;14.16;100.00;95455.69;5119592;27;24432;-72
2023/07/02 04:40:57;;;;;;;6.13;3.35;;;;;;;13.95;100.00;95460.88;5111608;27;25039;-72
2023/07/02 04:43:23;;;;;;;5.35;3.30;;;;;;;13.92;100.00;95461.13;5119830;27;25072;-71
2023/07/02 04:45:51;;;;;;;4.80;3.30;;;;;;;14.02;100.00;95452.44;5106259;27;24515;-72
2023/07/02 04:48:18;;;;;;;5.43;3.10;;;;;;;13.91;100.00;95452.50;5116326;27;24436;-71
2023/07/02 04:50:44;;;;;;;5.63;3.33;;;;;;;13.92;100.00;95458.53;5118821;27;24464;-72
2023/07/02 04:53:11;;;;;;;8.60;4.05;;;;;;;13.75;100.00;95450.28;5120735;27;24441;-71
2023/07/02 04:55:37;;;;;;;5.93;3.50;;;;;;;14.01;100.00;95450.78;5115461;27;25014;-72
2023/07/02 04:58:03;;;;;;;6.40;3.90;;;;;;;14.15;100.00;95460.06;5115469;27;24454;-72
2023/07/02 05:00:30;;;;;;;12.18;3.80;;;;;;;14.17;100.00;95462.56;5110677;27;24434;-71
2023/07/02 05:02:58;;;;;;;7.43;4.30;;;;;;;14.19;100.00;95461.47;5110706;27;24468;-71
2023/07/02 05:05:24;;;;;;;5.28;3.47;;;;;;;14.28;100.00;95472.94;5118731;27;25050;-71
2023/07/02 05:07:50;;;;;;;8.63;3.90;;;;;;;14.37;100.00;95469.56;5109609;27;24531;-72
2023/07/02 05:10:17;;;;;;;9.48;4.20;;;;;;;14.45;100.00;95474.94;5115443;27;24437;-71
2023/07/02 05:12:43;;;;;;;8.75;4.50;;;;;;;14.35;100.00;95473.22;5115766;27;24441;-71
2023/07/02 05:15:11;;;;;;;9.63;4.78;;;;;;;14.23;100.00;95473.28;5108866;27;24441;-72
2023/07/02 05:17:38;;;;;;;10.65;5.72;;;;;;;14.21;100.00;95475.22;5114770;27;24433;-71
2023/07/02 05:20:07;;;;;;;13.38;6.07;;;;;;;14.28;100.00;95468.53;5108909;27;24439;-71
2023/07/02 05:22:34;;;;;;;11.77;6.28;;;;;;;14.34;100.00;95476.78;5119516;27;24438;-71
2023/07/02 05:25:00;;;;;;;11.88;6.45;;;;;;;14.42;100.00;95477.81;5106233;27;24441;-71
2023/07/02 05:27:27;;;;;;;11.23;6.95;;;;;;;14.53;100.00;95484.78;5116356;27;24456;-71
2023/07/02 05:29:53;;;;;;;14.50;7.13;;;;;;;14.55;100.00;95488.09;5106798;27;24482;-71
2023/07/02 05:32:20;;;;;;;11.15;7.05;;;;;;;14.67;100.00;95487.06;5101888;27;24964;-73
2023/07/02 05:34:46;;;;;;;14.68;7.90;;;;;;;14.68;100.00;95490.47;5110905;27;24436;-72
2023/07/02 05:37:14;;;;;;;16.08;9.13;;;;;;;14.62;100.00;95491.03;5114059;27;24421;-73
2023/07/02 05:39:40;;;;;;;16.00;9.32;;;;;;;14.66;100.00;95498.44;5111289;27;24448;-72
2023/07/02 05:42:07;;;;;;;12.82;8.07;;;;;;;14.84;100.00;95492.66;5112252;27;24479;-72
2023/07/02 05:44:33;;;;;;;15.90;8.43;;;;;;;14.79;100.00;95485.19;5106745;28;24506;-72
2023/07/02 05:47:00;;;;;;;21.43;9.40;;;;;;;14.75;100.00;95489.03;5117166;27;25052;-72
2023/07/02 05:49:27;;;;;;;16.55;9.00;;;;;;;14.89;100.00;95488.69;5107939;27;24430;-73
2023/07/02 05:51:53;;;;;;;13.25;9.05;;;;;;;15.05;100.00;95487.38;5126017;27;24858;-74
2023/07/02 05:54:21;;;;;;;16.75;9.38;;;;;;;15.28;100.00;95490.63;5112071;27;25045;-74
2023/07/02 05:56:48;;;;;;;16.63;9.05;;;;;;;15.30;100.00;95496.56;5107043;27;25037;-71
2023/07/02 05:59:17;;;;;;;16.80;9.27;;;;;;;15.25;100.00;95499.56;5102610;28;24444;-72
2023/07/02 06:01:44;;;;;;;16.88;9.30;;;;;;;15.35;100.00;95496.97;5101732;28;24477;-72
2023/07/02 06:04:10;;;;;;;19.07;9.57;;;;;;;15.42;100.00;95496.31;5104230;28;25190;-72
2023/07/02 06:06:37;;;;;;;18.48;10.07;;;;;;;15.44;100.00;95502.25;5097728;28;24469;-72
2023/07/02 06:09:03;;;;;;;13.65;9.35;;;;;;;15.59;100.00;95501.88;5104600;28;24437;-72
2023/07/02 06:11:31;;;;;;;18.85;10.55;;;;;;;15.51;100.00;95505.16;5098061;28;24990;-72
2023/07/02 06:13:58;;;;;;;18.80;9.70;;;;;;;15.45;100.00;95505.66;5118704;28;24441;-72
2023/07/02 06:16:24;;;;;;;25.33;10.15;;;;;;;15.46;100.00;95516.00;5120523;28;24499;-72
2023/07/02 06:18:51;;;;;;;17.35;10.60;;;;;;;15.44;100.00;95511.84;5109867;28;24473;-72
2023/07/02 06:21:17;;;;;;;28.33;10.95;;;;;;;15.65;100.00;95517.88;5118621;28;24434;-72
2023/07/02 06:23:44;;;;;;;22.60;10.43;;;;;;;15.64;100.00;95516.16;5113734;28;24448;-72
2023/07/02 06:26:11;;;;;;;20.67;11.05;;;;;;;15.56;100.00;95515.19;5112480;28;24432;-73
2023/07/02 06:28:39;;;;;;;17.65;11.10;;;;;;;15.70;100.00;95518.28;5106680;28;24507;-72
2023/07/02 06:31:06;;;;;;;19.55;11.18;;;;;;;15.72;100.00;95525.97;5110940;28;24444;-72
2023/07/02 06:33:33;;;;;;;27.87;12.20;;;;;;;15.82;100.00;95532.03;5113138;28;24886;-72
2023/07/02 06:35:59;;;;;;;20.55;12.50;;;;;;;15.83;100.00;95531.06;5114148;28;24436;-72
2023/07/02 06:38:26;;;;;;;22.63;12.57;;;;;;;16.00;100.00;95523.56;5112716;28;24434;-72
2023/07/02 06:40:52;;;;;;;22.15;12.65;;;;;;;16.08;100.00;95526.31;5111167;28;24783;-72
2023/07/02 06:43:18;;;;;;;25.50;13.00;;;;;;;16.12;100.00;95527.69;5122131;28;24498;-72
2023/07/02 06:45:46;;;;;;;23.00;13.30;;;;;;;16.14;100.00;95536.25;5113261;28;24444;-72
2023/07/02 06:48:14;;;;;;;31.27;13.00;;;;;;;16.18;100.00;95533.22;5108495;28;24536;-72
2023/07/02 06:50:44;;;;;;;24.48;13.35;;;;;;;16.15;100.00;95537.88;5112584;28;24527;-72
2023/07/02 06:53:10;;;;;;;29.27;13.15;;;;;;;16.16;100.00;95539.53;5121639;28;24473;-72
2023/07/02 06:55:37;;;;;;;20.23;12.70;;;;;;;16.33;100.00;95540.66;5118285;28;25012;-72
2023/07/02 06:58:05;;;;;;;24.53;14.60;;;;;;;16.24;100.00;95537.06;5109105;28;24436;-72
2023/07/02 07:00:33;;;;;;;26.60;13.47;;;;;;;16.11;100.00;95539.94;5117276;28;24436;-72
2023/07/02 07:03:00;;;;;;;22.90;13.60;;;;;;;16.10;100.00;95538.28;5109091;28;25050;-72
2023/07/02 07:05:27;;;;;;;24.97;13.50;;;;;;;16.46;100.00;95535.97;5117692;28;24444;-73
2023/07/02 07:07:53;;;;;;;23.10;13.85;;;;;;;16.41;100.00;95540.78;5118954;28;24502;-72
2023/07/02 07:10:20;;;;;;;23.55;13.40;;;;;;;16.58;100.00;95547.94;5112369;28;24548;-72
2023/07/02 07:12:47;;;;;;;23.15;13.93;;;;;;;16.42;100.00;95551.09;5113409;27;24567;-72
2023/07/02 07:15:13;;;;;;;23.75;14.25;;;;;;;16.41;100.00;95548.63;5113407;27;24481;-72
2023/07/02 07:17:39;;;;;;;25.85;14.75;;;;;;;16.02;100.00;95548.59;5120984;27;25011;-72
2023/07/02 07:20:08;;;;;;;34.58;14.50;;;;;;;16.13;100.00;95547.63;5113988;27;24421;-72
2023/07/02 07:22:35;;;;;;;21.40;14.15;;;;;;;16.00;100.00;95558.34;5119824;27;24441;-72
2023/07/02 07:25:01;;;;;;;29.65;13.35;;;;;;;15.91;100.00;95553.94;5116026;27;24863;-72
2023/07/02 07:27:28;;;;;;;20.83;13.77;;;;;;;16.10;100.00;95556.59;5112398;27;24469;-72
2023/07/02 07:29:54;;;;;;;21.17;13.82;;;;;;;16.07;100.00;95554.22;5112107;27;24975;-72
2023/07/02 07:32:21;;;;;;;22.38;14.75;;;;;;;16.29;100.00;95555.78;5112351;27;24428;-72
2023/07/02 07:34:48;;;;;;;27.92;14.40;;;;;;;16.32;100.00;95546.84;5121042;27;24440;-72
2023/07/02 07:37:16;;;;;;;25.88;15.25;;;;;;;16.49;100.00;95556.59;5114287;27;25049;-72
2023/07/02 07:39:42;;;;;;;27.65;14.82;;;;;;;16.74;100.00;95557.03;5117393;27;24434;-72
2023/07/02 07:42:08;;;;;;;21.67;14.20;;;;;;;16.98;100.00;95560.00;5115741;27;24432;-73
2023/07/02 07:44:35;;;;;;;25.60;15.20;;;;;;;16.62;100.00;95561.56;5119609;27;24440;-72
2023/07/02 07:47:01;;;;;;;28.88;15.50;;;;;;;16.86;100.00;95556.75;5114405;27;24459;-71
2023/07/02 07:49:28;;;;;;;22.35;15.45;;;;;;;16.91;100.00;95558.97;5107704;27;24430;-72
2023/07/02 07:51:54;;;;;;;29.87;15.60;;;;;;;16.73;100.00;95550.97;5127882;27;24479;-72
2023/07/02 07:54:22;;;;;;;27.42;16.08;;;;;;;16.73;100.00;95561.41;5116205;27;24843;-71
2023/07/02 07:56:48;;;;;;;27.23;15.25;;;;;;;16.51;100.00;95565.13;5111590;27;24854;-72
2023/07/02 07:59:15;;;;;;;30.52;16.67;;;;;;;16.58;100.00;95565.41;5116043;27;24979;-72
2023/07/02 08:01:41;;;;;;;25.37;14.83;;;;;;;16.51;100.00;95559.91;5118963;27;24483;-72
2023/07/02 08:04:08;;;;;;;27.90;14.77;;;;;;;16.58;100.00;95573.25;5124035;27;24487;-72
2023/07/02 08:06:34;;;;;;;28.02;15.35;;;;;;;16.27;100.00;95564.69;5118477;27;24434;-77
2023/07/02 08:09:01;;;;;;;26.17;15.23;;;;;;;16.44;100.00;95569.25;5122262;27;24503;-73
2023/07/02 08:11:28;;;;;;;23.98;14.55;;;;;;;16.36;100.00;95569.94;5114242;27;24993;-73
2023/07/02 08:13:55;;;;;;;21.63;14.20;;;;;;;16.77;100.00;95564.63;5114650;27;24456;-75
2023/07/02 08:16:21;;;;;;;22.40;14.48;;;;;;;17.19;100.00;95567.69;5106666;27;24799;-73
2023/07/02 08:18:48;;;;;;;24.38;13.95;;;;;;;17.69;100.00;95559.53;5099861;27;24426;-73
2023/07/02 08:21:14;;;;;;;21.75;14.80;;;;;;;17.77;100.00;95551.81;5103643;27;24442;-73
2023/07/02 08:23:43;;;;;;;22.85;13.50;;;;;;;18.17;100.00;95550.63;5116233;27;24442;-75
2023/07/02 08:26:10;;;;;;;21.65;13.10;;;;;;;18.17;100.00;95553.22;5108237;27;24468;-75
2023/07/02 08:28:38;;;;;;;22.07;13.53;;;;;;;18.26;100.00;95562.00;5116078;27;24482;-74
2023/07/02 08:31:05;;;;;;;20.10;13.13;;;;;;;18.26;100.00;95562.00;5109187;27;24524;-73
2023/07/02 08:33:31;;;;;;;19.93;13.13;;;;;;;18.15;100.00;95552.53;5117430;27;24441;-75
2023/07/02 08:35:58;;;;;;;28.08;13.25;;;;;;;17.89;100.00;95560.28;5110351;27;24442;-75
2023/07/02 08:38:24;;;;;;;19.05;13.10;;;;;;;17.97;100.00;95562.16;5113924;27;24848;-75
2023/07/02 08:40:51;;;;;;;17.23;12.30;;;;;;;18.16;100.00;95554.19;5111987;27;25364;-74
2023/07/02 08:43:17;;;;;;;26.33;13.38;;;;;;;17.99;100.00;95561.06;5120223;27;24795;-74
2023/07/02 08:45:46;;;;;;;21.00;12.30;;;;;;;18.12;100.00;95553.66;5120096;27;24457;-74
2023/07/02 08:48:14;;;;;;;20.15;12.60;;;;;;;18.22;100.00;95560.66;5102271;27;24503;-74
2023/07/02 08:50:40;;;;;;;21.80;12.18;;;;;;;18.02;100.00;95555.53;5116387;27;24444;-74
2023/07/02 08:53:07;;;;;;;25.80;13.33;;;;;;;17.77;100.00;95551.81;5112611;27;24453;-74
2023/07/02 08:55:33;;;;;;;21.88;12.05;;;;;;;17.99;100.00;95560.25;5109022;27;24436;-74
2023/07/02 08:58:00;;;;;;;20.20;12.20;;;;;;;18.29;100.00;95557.28;5115393;27;24506;-74
2023/07/02 09:00:27;;;;;;;18.00;12.13;;;;;;;18.08;100.00;95559.34;5120519;27;25043;-74
2023/07/02 09:02:55;;;;;;;17.20;12.35;;;;;;;18.41;100.00;95554.44;5112902;27;25045;-74
2023/07/02 09:05:21;;;;;;;18.73;12.63;;;;;;;18.92;100.00;95555.56;5109255;27;24429;-74
2023/07/02 09:07:48;;;;;;;21.70;12.53;;;;;;;19.15;100.00;95561.94;5113858;27;24518;-74
2023/07/02 09:10:27;;;;;;;28.05;12.98;;;;;;;18.73;100.00;95557.38;5105022;28;24449;-76
2023/07/02 09:13:03;;;;;;;21.42;11.73;;;;;;;18.75;100.00;95560.66;5108569;27;24998;-73
2023/07/02 09:15:36;;;;;;;18.00;11.95;;;;;;;18.60;100.00;95562.97;5110044;27;24428;-73
2023/07/02 09:18:04;;;;;;;17.55;11.82;;;;;;;18.41;100.00;95559.69;5105338;27;24437;-74
2023/07/02 09:20:34;;;;;;;21.67;12.20;;;;;;;18.53;100.00;95564.53;5110029;27;24460;-74
2023/07/02 09:23:01;;;;;;;22.70;12.52;;;;;;;19.10;100.00;95564.22;5107845;27;24536;-73
2023/07/02 09:25:35;;;;;;;20.40;12.38;;;;;;;19.44;97.10;95566.06;5119576;27;24440;-75
2023/07/02 09:28:01;;;;;;;24.00;12.93;;;;;;;19.89;94.02;95555.31;5114931;27;24453;-73
2023/07/02 09:30:28;;;;;;;23.38;13.20;;;;;;;20.16;92.33;95561.28;5106049;28;24443;-74
2023/07/02 09:32:54;;;;;;;17.20;12.20;;;;;;;20.23;90.64;95557.03;5113067;27;24443;-74
2023/07/02 09:35:22;;;;;;;19.90;12.75;;;;;;;19.67;92.90;95561.13;5116681;27;24445;-75
2023/07/02 09:37:49;;;;;;;22.52;13.23;;;;;;;19.34;80.54;95560.91;5124660;27;25040;-74
2023/07/02 09:40:17;;;;;;;23.50;12.95;;;;;;;18.99;81.89;95559.22;5121124;27;24473;-75
2023/07/02 09:42:52;;;;;;;17.85;12.07;;;;;;;18.95;82.97;95556.09;5126593;27;25050;-74
2023/07/02 09:45:18;;;;;;;18.17;13.27;;;;;;;19.07;83.38;95556.66;5115888;27;24530;-74
2023/07/02 09:47:50;;;;;;;23.35;13.73;;;;;;;19.46;81.67;95553.59;5111803;27;24483;-74
2023/07/02 09:50:19;;;;;;;20.08;15.05;;;;;;;19.93;80.87;95553.19;5110453;27;24440;-74
2023/07/02 09:52:48;;;;;;;26.10;15.80;;;;;;;20.49;74.01;95547.25;5122045;27;24446;-74
2023/07/02 09:55:15;;;;;;;21.65;14.57;;;;;;;20.86;73.37;95543.31;5117688;27;24932;-74
2023/07/02 09:57:44;;;;;;;19.45;13.85;;;;;;;20.74;71.78;95544.66;5108791;27;21322;-74
2023/07/02 10:00:12;;;;;;;25.90;15.18;;;;;;;20.47;71.68;95546.56;5110682;28;25239;-74
2023/07/02 10:02:39;;;;;;;22.98;13.80;;;;;;;20.41;73.68;95546.41;5098943;28;24800;-74
2023/07/02 10:05:05;;;;;;;24.60;13.65;;;;;;;20.03;68.55;95546.00;5120725;27;24524;-74
2023/07/02 10:07:33;;;;;;;19.73;13.57;;;;;;;19.42;68.71;95544.38;5106155;27;24437;-74
2023/07/02 10:10:01;;;;;;;24.30;14.50;;;;;;;19.06;72.71;95557.63;5113124;27;24441;-74
2023/07/02 10:12:29;;;;;;;23.90;13.63;;;;;;;19.68;70.63;95558.31;5106825;28;24440;-74
2023/07/02 10:14:58;;;;;;;20.77;14.23;;;;;;;19.76;71.14;95554.91;5100694;28;24476;-74
2023/07/02 10:17:27;;;;;;;22.58;13.60;;;;;;;20.12;69.25;95557.34;5104558;28;24436;-74
2023/07/02 10:19:53;;;;;;;19.67;13.95;;;;;;;20.47;65.03;95549.22;5110892;28;24438;-74
2023/07/02 10:22:21;;;;;;;18.50;13.30;;;;;;;20.54;68.23;95549.38;5107568;28;24486;-74
2023/07/02 10:24:59;;;;;;;20.92;14.55;;;;;;;20.90;64.03;95557.78;5107800;28;24437;-74
2023/07/02 10:27:38;;;;;;;21.88;15.52;;;;;;;20.95;66.75;95558.13;5118428;28;25055;-73
2023/07/02 10:30:07;;;;;;;18.58;14.13;;;;;;;21.17;65.50;95554.00;5106447;28;24434;-73
2023/07/02 10:32:35;;;;;;;19.23;13.27;;;;;;;21.47;62.27;95551.69;5109871;28;24855;-73
2023/07/02 10:35:02;;;;;;;19.30;13.98;;;;;;;20.63;62.60;95537.91;5113720;28;24434;-76
2023/07/02 10:37:36;;;;;;;28.20;14.73;;;;;;;20.70;60.38;95554.69;5113840;28;24854;-75
2023/07/02 10:40:05;;;;;;;21.25;14.63;;;;;;;21.03;61.13;95542.31;5106422;28;25021;-75
2023/07/02 10:42:32;;;;;;;30.38;14.50;;;;;;;20.85;61.56;95552.22;5115682;28;24471;-75
2023/07/02 10:45:00;;;;;;;24.98;14.50;;;;;;;20.40;63.13;95550.84;5116935;28;24433;-75
2023/07/02 10:47:29;;;;;;;20.73;14.15;;;;;;;20.85;63.57;95541.69;5105258;28;24792;-74
2023/07/02 10:49:55;;;;;;;25.45;14.88;;;;;;;21.21;57.87;95557.09;5108593;27;24528;-73
2023/07/02 10:52:22;;;;;;;22.52;13.95;;;;;;;21.39;57.83;95551.66;5112480;27;24436;-74
2023/07/02 10:54:48;;;;;;;24.02;14.25;;;;;;;21.85;56.85;95539.50;5119726;27;24502;-73
2023/07/02 10:57:20;;;;;;;24.13;14.15;;;;;;;21.76;55.19;95537.88;5121885;27;24436;-74
2023/07/02 10:59:46;;;;;;;21.00;14.82;;;;;;;21.48;55.34;95542.78;5111830;27;25034;-75
2023/07/02 11:02:14;;;;;;;22.40;14.48;;;;;;;21.34;57.16;95552.19;5103477;27;24800;-73
2023/07/02 11:04:41;;;;;;;23.33;14.52;;;;;;;21.23;57.47;95549.88;5116571;27;24426;-73
2023/07/02 11:07:07;;;;;;;22.93;14.30;;;;;;;21.11;59.35;95551.22;5124123;27;24522;-73
2023/07/02 11:09:34;;;;;;;18.83;13.73;;;;;;;21.42;56.92;95548.69;5113232;27;24544;-74
2023/07/02 11:12:01;;;;;;;28.70;13.25;;;;;;;21.29;55.80;95548.38;5118186;27;25001;-75
2023/07/02 11:14:29;;;;;;;23.60;13.33;;;;;;;21.45;53.07;95543.09;5105389;27;24982;-75
2023/07/02 11:16:56;;;;;;;21.70;13.63;;;;;;;21.76;52.51;95551.06;5113354;27;24433;-75
2023/07/02 11:19:24;;;;;;;20.40;13.90;;;;;;;22.00;51.25;95539.59;5107287;27;24837;-75